Rowan, Iowa
Current Conditions -  °F | °C
As of 9:55 AM on Friday 31 Oct 2014 (Local Time) from KCAV Reporting Station
Clear Clear  
Wind Chill: 19°   Ceiling: Unl
Heat Index: 30°   Visibility: 10mi
Dew Point: 19°   Wind: 15mph
Humidity: 64%   Direction: 350°N
Pressure: 30.51"   Gusts: 22mph
Location:  42.74°N, 93.55°W
Report Text: KCAV 311455Z AUTO 35013G19KT 10SM CLR M01/M07 A3051 RMK AO2
Loading
Personal Weather Stations






























Interactive Weather Map
Tropical Storm Tracking
New forecast layout! Learn more

10-Day Weather Forecast

Advertisements
Track Severe Weather on mobile